Time;durP1;ratioP1;P1;durP2;ratioP2;P2;SDS_P1;SDS_P2;PMS_P1;PMS_P2;Temp;Humidity;BMP_temperature;BMP_pressure;BME280_temperature;BME280_humidity;BME280_pressure;Samples;Min_cycle;Max_cycle;Signal;HPM_P1;HPM_P2
2022/07/12 00:00:56;;;;;;;2.95;1.40;;;;;;;18.55;77.34;102452.16;5074989;28;20478;-78
2022/07/12 00:03:21;;;;;;;1.90;1.80;;;;;;;18.53;77.43;102454.03;5088697;28;20059;-78
2022/07/12 00:05:47;;;;;;;1.45;1.35;;;;;;;18.51;77.28;102454.13;5073799;28;20031;-78
2022/07/12 00:08:12;;;;;;;1.73;1.63;;;;;;;18.49;77.15;102455.97;5055015;28;20037;-78
2022/07/12 00:10:37;;;;;;;1.55;1.45;;;;;;;18.46;77.13;102456.13;5060494;28;20035;-79
2022/07/12 00:13:03;;;;;;;2.78;1.80;;;;;;;18.44;77.21;102467.75;5074338;28;20406;-78
2022/07/12 00:15:29;;;;;;;1.60;1.50;;;;;;;18.42;77.06;102459.88;5076394;28;20177;-78
2022/07/12 00:17:54;;;;;;;1.73;1.63;;;;;;;18.40;77.03;102461.75;5060305;28;20396;-78
2022/07/12 00:20:21;;;;;;;1.63;1.52;;;;;;;18.36;77.01;102455.72;5075046;28;20274;-78
2022/07/12 00:22:46;;;;;;;3.72;2.00;;;;;;;18.35;77.10;102450.47;5087522;28;20097;-78
2022/07/12 00:25:13;;;;;;;1.70;1.60;;;;;;;18.33;77.19;102452.34;5066857;28;20028;-78
2022/07/12 00:27:39;;;;;;;1.70;1.60;;;;;;;18.32;77.26;102453.28;5081081;28;20044;-78
2022/07/12 00:30:07;;;;;;;1.70;1.60;;;;;;;18.30;77.13;102444.53;5070567;28;20343;-79
2022/07/12 00:32:32;;;;;;;1.73;1.63;;;;;;;18.28;77.17;102451.72;5087129;28;20058;-79
2022/07/12 00:34:58;;;;;;;2.92;1.55;;;;;;;18.26;77.22;102445.63;5087867;28;20300;-78
2022/07/12 00:37:23;;;;;;;2.40;1.70;;;;;;;18.24;77.41;102445.69;5077014;28;20039;-78
2022/07/12 00:39:49;;;;;;;1.75;1.65;;;;;;;18.21;77.24;102445.84;5060477;28;20060;-78
2022/07/12 00:42:14;;;;;;;1.80;1.70;;;;;;;18.19;77.41;102451.22;5086940;28;20354;-79
2022/07/12 00:44:40;;;;;;;1.77;1.67;;;;;;;18.17;77.37;102449.56;5057012;28;20098;-78
2022/07/12 00:47:05;;;;;;;3.17;1.67;;;;;;;18.14;77.50;102455.88;5094655;28;20070;-78
2022/07/12 00:49:31;;;;;;;2.00;1.85;;;;;;;18.12;77.14;102447.16;5077336;28;20028;-78
2022/07/12 00:51:56;;;;;;;1.83;1.55;;;;;;;18.11;77.54;102458.66;5094680;28;20197;-78
2022/07/12 00:54:22;;;;;;;2.20;2.00;;;;;;;18.10;77.37;102454.31;5098094;28;20040;-78
2022/07/12 00:56:48;;;;;;;1.92;1.77;;;;;;;18.07;77.55;102449.16;5062279;28;20030;-78
2022/07/12 00:59:13;;;;;;;1.80;1.70;;;;;;;18.06;77.52;102446.56;5084856;28;20037;-77
2022/07/12 01:05:18;;;;;;;1.77;1.55;;;;;;;18.03;77.33;102452.88;4954526;28;20056;-76
2022/07/12 01:07:44;;;;;;;3.00;1.50;;;;;;;18.00;77.25;102440.59;5043333;28;20373;-76
2022/07/12 01:10:10;;;;;;;1.50;1.40;;;;;;;17.99;77.69;102443.31;5026798;28;20037;-76
2022/07/12 01:12:36;;;;;;;1.80;1.70;;;;;;;17.97;77.64;102435.47;5048719;28;20107;-76
2022/07/12 01:15:04;;;;;;;1.60;1.50;;;;;;;17.95;77.44;102434.66;5053382;28;20258;-76
2022/07/12 01:17:30;;;;;;;1.90;1.80;;;;;;;17.95;77.66;102423.22;5034761;28;20466;-76
2022/07/12 01:19:57;;;;;;;1.80;1.70;;;;;;;17.92;77.65;102416.28;5033946;28;20036;-76
2022/07/12 01:22:31;;;;;;;1.77;1.67;;;;;;;17.91;77.57;102411.88;5036653;28;20059;-76
2022/07/12 01:24:57;;;;;;;1.90;1.80;;;;;;;17.89;77.59;102416.41;5041651;28;20176;-76
2022/07/12 01:27:23;;;;;;;1.52;1.42;;;;;;;17.89;77.89;102420.84;5035901;28;20045;-76
2022/07/12 01:29:48;;;;;;;2.05;1.95;;;;;;;17.86;77.72;102415.69;5048183;28;20240;-76
2022/07/12 01:32:26;;;;;;;1.90;1.80;;;;;;;17.84;77.81;102429.84;5053564;28;20079;-76
2022/07/12 01:34:53;;;;;;;2.65;1.55;;;;;;;17.83;77.56;102429.91;5043608;28;20123;-76
2022/07/12 01:37:19;;;;;;;1.65;1.55;;;;;;;17.80;77.64;102428.25;5042199;28;20033;-76
2022/07/12 01:39:46;;;;;;;2.38;1.90;;;;;;;17.79;77.80;102434.50;5053736;28;20040;-76
2022/07/12 01:42:12;;;;;;;2.08;1.88;;;;;;;17.77;77.67;102431.06;5046121;28;20135;-76
2022/07/12 01:44:37;;;;;;;1.85;1.75;;;;;;;17.76;77.67;102439.94;5036959;28;20229;-76
2022/07/12 01:47:03;;;;;;;2.58;1.77;;;;;;;17.74;77.67;102447.09;5052883;28;20041;-76
2022/07/12 01:49:28;;;;;;;1.75;1.65;;;;;;;17.71;77.50;102439.28;5069851;28;20041;-76
2022/07/12 01:51:58;;;;;;;1.63;1.52;;;;;;;17.70;77.53;102441.97;5057932;28;20313;-76
2022/07/12 01:54:25;;;;;;;1.70;1.60;;;;;;;17.67;77.40;102443.00;5087069;28;20046;-76
2022/07/12 01:56:51;;;;;;;2.38;2.17;;;;;;;17.64;77.51;102451.97;5094387;28;20222;-76
2022/07/12 01:59:16;;;;;;;1.80;1.70;;;;;;;17.62;77.61;102453.78;5078175;28;20334;-76
2022/07/12 02:01:43;;;;;;;2.20;1.70;;;;;;;17.60;77.42;102449.50;5060008;28;20032;-76
2022/07/12 02:04:08;;;;;;;2.17;1.80;;;;;;;17.58;77.48;102457.50;5076756;28;20403;-76
2022/07/12 02:06:35;;;;;;;2.03;1.88;;;;;;;17.56;77.72;102455.88;5077534;28;20028;-76
2022/07/12 02:09:00;;;;;;;2.08;1.95;;;;;;;17.56;77.53;102458.53;5076200;28;20361;-76
2022/07/12 02:11:25;;;;;;;6.13;1.90;;;;;;;17.52;77.64;102459.56;5079581;28;20154;-76
2022/07/12 02:13:51;;;;;;;2.05;1.88;;;;;;;17.50;77.45;102461.41;5095647;28;20276;-76
2022/07/12 02:16:17;;;;;;;1.98;1.88;;;;;;;17.46;77.47;102456.28;5095436;28;20329;-76
2022/07/12 02:18:46;;;;;;;2.03;1.92;;;;;;;17.45;77.48;102456.34;5095948;28;20226;-77
2022/07/12 02:21:12;;;;;;;;;;;;;;;17.42;77.26;102456.47;5080063;28;20059;-78
2022/07/12 02:23:38;;;;;;;1.88;1.77;;;;;;;17.41;77.31;102454.78;5078559;28;19920;-78
2022/07/12 02:26:03;;;;;;;1.85;1.75;;;;;;;17.39;77.51;102451.28;5086775;28;20032;-78
2022/07/12 02:28:29;;;;;;;2.05;1.95;;;;;;;17.37;77.71;102450.50;5088006;28;20033;-78
2022/07/12 02:30:54;;;;;;;1.98;1.83;;;;;;;17.34;77.50;102443.56;5089215;28;20027;-78
2022/07/12 02:33:20;;;;;;;2.42;1.80;;;;;;;17.33;77.63;102441.84;5080347;28;20074;-78
2022/07/12 02:35:45;;;;;;;1.95;1.85;;;;;;;17.31;77.64;102435.75;5089844;28;20032;-78
2022/07/12 02:38:11;;;;;;;2.03;1.92;;;;;;;17.30;77.76;102436.69;5063231;28;20040;-78
2022/07/12 02:40:55;;;;;;;1.80;1.70;;;;;;;17.30;77.53;102444.63;5092466;28;20230;-78
2022/07/12 02:43:25;;;;;;;1.75;1.65;;;;;;;17.27;77.69;102442.13;5090383;28;20040;-78
2022/07/12 02:45:52;;;;;;;1.80;1.70;;;;;;;17.26;77.58;102446.56;5085929;28;20043;-76
2022/07/12 02:48:18;;;;;;;1.83;1.73;;;;;;;17.23;77.69;102446.69;5074952;28;20107;-76
2022/07/12 02:50:43;;;;;;;2.00;1.83;;;;;;;17.22;77.70;102447.59;5081263;28;20428;-76
2022/07/12 02:53:10;;;;;;;1.83;1.73;;;;;;;17.21;77.71;102440.59;5075264;28;20036;-76
2022/07/12 02:55:36;;;;;;;1.90;1.80;;;;;;;17.19;77.73;102444.22;5058670;28;20058;-76
2022/07/12 02:58:02;;;;;;;2.05;1.95;;;;;;;17.18;77.85;102448.66;5089247;28;20028;-76
2022/07/12 03:00:28;;;;;;;1.83;1.73;;;;;;;17.16;77.67;102450.53;5066856;28;20036;-76
2022/07/12 03:02:54;;;;;;;2.70;2.10;;;;;;;17.14;77.66;102444.44;5056931;28;20027;-76
2022/07/12 03:05:20;;;;;;;3.35;2.40;;;;;;;17.14;77.70;102456.81;5058840;28;20063;-76
2022/07/12 03:07:45;;;;;;;2.47;1.95;;;;;;;17.11;77.79;102451.66;5080267;28;20063;-76
2022/07/12 03:10:10;;;;;;;2.42;2.22;;;;;;;17.09;77.66;102449.06;5056796;28;20032;-76
2022/07/12 03:12:37;;;;;;;1.92;1.83;;;;;;;17.06;77.60;102452.72;5077460;28;20041;-76
2022/07/12 03:15:03;;;;;;;1.90;1.75;;;;;;;17.05;77.64;102455.41;5069405;28;20103;-76
2022/07/12 03:17:28;;;;;;;2.15;2.05;;;;;;;17.04;77.78;102451.03;5074253;28;20296;-76
2022/07/12 03:19:53;;;;;;;2.10;2.00;;;;;;;17.03;77.63;102451.97;5066857;28;20397;-76
2022/07/12 03:22:19;;;;;;;1.90;1.80;;;;;;;17.00;77.74;102455.59;5090872;28;20319;-76
2022/07/12 03:24:44;;;;;;;2.58;2.38;;;;;;;16.99;77.59;102456.53;5055790;28;20225;-76
2022/07/12 03:27:09;;;;;;;2.65;2.33;;;;;;;16.97;77.71;102452.22;5092642;28;20122;-76
2022/07/12 03:29:36;;;;;;;2.40;2.30;;;;;;;16.97;77.81;102454.88;5050036;28;20074;-76
2022/07/12 03:32:01;;;;;;;2.80;2.60;;;;;;;16.95;77.76;102454.94;5074165;28;20355;-76
2022/07/12 03:34:26;;;;;;;2.25;2.15;;;;;;;16.94;77.88;102455.88;5082690;28;20048;-76
2022/07/12 03:36:52;;;;;;;2.38;2.28;;;;;;;16.94;78.32;102453.22;5066987;28;20040;-76
2022/07/12 03:39:17;;;;;;;2.55;2.35;;;;;;;16.92;78.51;102455.06;5085422;28;20043;-76
2022/07/12 03:41:43;;;;;;;2.45;2.33;;;;;;;16.91;78.50;102458.63;5085122;28;20040;-76
2022/07/12 03:44:08;;;;;;;2.92;2.72;;;;;;;16.91;78.46;102457.78;5063948;28;20117;-76
2022/07/12 03:46:33;;;;;;;2.50;2.40;;;;;;;16.89;78.50;102455.19;5063302;28;20264;-76
2022/07/12 03:48:59;;;;;;;2.45;2.28;;;;;;;16.89;78.83;102463.13;5066121;28;20059;-76
2022/07/12 03:51:25;;;;;;;2.90;2.70;;;;;;;16.88;78.72;102461.41;5082638;28;20032;-76
2022/07/12 03:53:51;;;;;;;2.22;2.13;;;;;;;16.86;78.74;102466.78;5086597;28;20338;-76
2022/07/12 03:59:00;;;;;;;2.90;2.70;;;;;;;16.85;78.95;102462.41;5065428;28;20040;-76
2022/07/12 04:01:25;;;;;;;2.65;2.55;;;;;;;16.85;78.83;102453.59;5076578;28;20338;-76
2022/07/12 04:03:50;;;;;;;2.22;2.03;;;;;;;16.85;78.91;102461.53;5057278;28;20071;-76
2022/07/12 04:06:16;;;;;;;2.40;2.30;;;;;;;16.84;79.04;102459.81;5056975;28;20078;-76
2022/07/12 04:08:41;;;;;;;2.42;2.33;;;;;;;16.82;78.63;102459.84;5092797;28;20032;-76
2022/07/12 04:11:06;;;;;;;3.17;2.53;;;;;;;16.84;79.39;102454.53;5092422;28;20032;-76
2022/07/12 04:13:33;;;;;;;3.50;2.40;;;;;;;16.83;79.23;102460.75;5071177;28;20044;-76
2022/07/12 04:15:58;;;;;;;2.30;2.20;;;;;;;16.83;79.14;102460.75;5072702;28;20082;-76
2022/07/12 04:18:24;;;;;;;2.60;2.40;;;;;;;16.83;79.27;102464.25;5072934;28;20107;-76
2022/07/12 04:20:49;;;;;;;2.72;2.53;;;;;;;16.82;79.36;102467.78;5060659;28;20035;-75
2022/07/12 04:23:14;;;;;;;2.67;2.47;;;;;;;16.83;79.53;102463.41;5072492;28;20032;-76
2022/07/12 04:25:40;;;;;;;2.42;2.33;;;;;;;16.83;79.27;102464.25;5073043;28;20374;-76
2022/07/12 04:28:05;;;;;;;2.70;2.50;;;;;;;16.83;79.63;102466.03;5076671;28;20108;-76
2022/07/12 04:30:31;;;;;;;2.75;2.55;;;;;;;16.83;79.76;102466.03;5073216;28;20051;-76
2022/07/12 04:32:56;;;;;;;2.72;2.53;;;;;;;16.83;80.31;102464.25;5091825;28;20039;-76
2022/07/12 04:35:21;;;;;;;3.03;2.83;;;;;;;16.83;80.52;102461.59;5068163;28;20095;-76
2022/07/12 04:37:47;;;;;;;3.15;2.85;;;;;;;16.84;80.99;102467.75;5088653;28;20278;-76
2022/07/12 04:40:12;;;;;;;3.25;3.05;;;;;;;16.83;81.73;102461.59;5091302;28;20055;-76
2022/07/12 04:42:38;;;;;;;3.10;2.90;;;;;;;16.84;82.00;102470.41;5091423;28;20170;-76
2022/07/12 04:45:04;;;;;;;3.00;2.80;;;;;;;16.84;81.79;102465.94;5058733;28;20028;-76
2022/07/12 04:47:29;;;;;;;3.10;2.90;;;;;;;16.84;82.06;102463.31;5091472;28;20377;-76
2022/07/12 04:49:55;;;;;;;4.43;2.90;;;;;;;16.84;81.77;102455.38;5060690;28;20043;-76
2022/07/12 04:52:20;;;;;;;2.83;2.47;;;;;;;16.87;81.34;102459.69;5061423;28;20598;-76
2022/07/12 04:54:46;;;;;;;2.65;2.42;;;;;;;16.88;81.24;102461.41;5091763;28;20043;-76
2022/07/12 04:57:12;;;;;;;3.95;2.90;;;;;;;16.89;81.00;102469.28;5088681;28;20148;-76
2022/07/12 04:59:37;;;;;;;3.00;2.80;;;;;;;16.89;80.47;102468.41;5072588;28;20040;-76
2022/07/12 05:02:03;;;;;;;2.80;2.60;;;;;;;16.91;80.84;102474.50;5084800;28;20059;-76
2022/07/12 05:04:32;;;;;;;2.90;2.70;;;;;;;16.92;80.41;102470.06;5084134;28;20354;-76
2022/07/12 05:06:58;;;;;;;2.97;2.67;;;;;;;16.93;80.36;102467.38;5086770;28;20120;-76
2022/07/12 05:09:23;;;;;;;2.90;2.70;;;;;;;16.94;80.21;102468.25;5067202;28;20320;-76
2022/07/12 05:11:48;;;;;;;2.83;2.60;;;;;;;16.95;80.38;102468.16;5058296;28;20457;-76
2022/07/12 05:14:14;;;;;;;3.20;3.00;;;;;;;16.94;80.39;102471.75;5057460;28;20032;-76
2022/07/12 05:16:39;;;;;;;3.25;2.95;;;;;;;16.97;80.18;102478.69;5075905;28;20043;-76
2022/07/12 05:19:05;;;;;;;2.70;2.50;;;;;;;16.96;80.13;102477.84;5090107;28;20324;-76
2022/07/12 05:21:30;;;;;;;2.90;2.70;;;;;;;16.96;80.14;102480.47;5094783;28;20459;-76
2022/07/12 05:23:56;;;;;;;2.92;2.72;;;;;;;16.98;79.86;102480.41;5091026;28;20040;-76
2022/07/12 05:26:21;;;;;;;3.30;3.10;;;;;;;16.99;79.82;102485.66;5083307;28;20035;-76
2022/07/12 05:28:46;;;;;;;3.17;2.95;;;;;;;17.00;79.75;102494.44;5076685;28;20029;-76
2022/07/12 05:31:12;;;;;;;3.58;3.28;;;;;;;17.01;79.69;102489.09;5050279;28;20328;-76
2022/07/12 05:33:37;;;;;;;4.30;3.40;;;;;;;17.01;79.72;102490.88;5077012;28;20035;-76
2022/07/12 05:36:03;;;;;;;5.32;3.22;;;;;;;17.02;80.14;102493.44;5065560;28;20059;-76
2022/07/12 05:38:28;;;;;;;3.40;3.20;;;;;;;17.04;80.40;102496.03;5057732;28;20077;-76
2022/07/12 05:40:54;;;;;;;3.78;3.47;;;;;;;17.06;80.75;102497.72;5063563;28;20040;-76
2022/07/12 05:43:19;;;;;;;3.83;3.53;;;;;;;17.07;80.56;102494.13;5089289;28;20150;-76
2022/07/12 05:45:44;;;;;;;5.43;4.70;;;;;;;17.10;80.90;102498.44;5068907;28;20574;-76
2022/07/12 05:48:10;;;;;;;8.80;5.00;;;;;;;17.12;81.69;102499.22;5075856;28;20036;-76
2022/07/12 05:50:35;;;;;;;4.95;4.55;;;;;;;17.13;82.02;102500.09;5089051;28;20046;-76
2022/07/12 05:55:45;;;;;;;5.75;4.55;;;;;;;17.16;82.61;102495.53;5081381;28;20394;-76
2022/07/12 05:58:10;;;;;;;4.65;4.35;;;;;;;17.19;82.69;102502.47;5093418;28;20032;-76
2022/07/12 06:00:36;;;;;;;5.22;4.65;;;;;;;17.20;83.14;102499.75;5062837;28;20250;-76
2022/07/12 06:03:01;;;;;;;7.22;4.63;;;;;;;17.21;82.98;102495.34;5080243;28;20052;-76
2022/07/12 06:05:27;;;;;;;5.13;4.72;;;;;;;17.22;83.11;102500.53;5070287;28;20143;-76
2022/07/12 06:07:53;;;;;;;5.20;4.80;;;;;;;17.24;83.25;102495.19;5074757;28;20047;-76
2022/07/12 06:10:18;;;;;;;6.88;5.15;;;;;;;17.25;83.24;102488.97;5056873;28;20243;-76
2022/07/12 06:12:44;;;;;;;5.57;5.05;;;;;;;17.27;83.37;102495.06;5068833;28;20358;-76
2022/07/12 06:15:10;;;;;;;5.18;4.65;;;;;;;17.29;83.37;102501.16;5061966;28;20239;-76
2022/07/12 06:17:35;;;;;;;5.45;5.03;;;;;;;17.29;83.67;102498.50;5080623;28;20286;-76
2022/07/12 06:20:01;;;;;;;5.00;4.60;;;;;;;17.30;83.67;102497.59;5063803;28;20311;-76
2022/07/12 06:22:26;;;;;;;6.40;5.00;;;;;;;17.31;83.65;102496.66;5075167;28;20045;-76
2022/07/12 06:24:52;;;;;;;9.45;6.82;;;;;;;17.33;83.84;102501.88;5090102;28;20032;-76
2022/07/12 06:27:17;;;;;;;6.07;5.60;;;;;;;17.34;84.21;102499.19;5075294;28;20276;-76
2022/07/12 06:29:47;;;;;;;5.97;5.30;;;;;;;17.37;84.28;102503.47;5065610;28;20052;-76
2022/07/12 06:32:16;;;;;;;5.85;4.93;;;;;;;17.38;83.84;102500.75;5058140;28;20068;-76
2022/07/12 06:34:41;;;;;;;5.60;4.97;;;;;;;17.39;83.43;102502.50;5085659;28;20099;-76
2022/07/12 06:37:08;;;;;;;5.55;4.93;;;;;;;17.42;83.63;102505.00;5082489;28;20043;-76
2022/07/12 06:39:35;;;;;;;5.18;4.78;;;;;;;17.45;83.51;102517.25;5084399;28;20016;-76
2022/07/12 06:42:03;;;;;;;5.28;4.78;;;;;;;17.49;83.16;102510.03;5088571;28;20107;-76
2022/07/12 06:44:30;;;;;;;3.75;3.55;;;;;;;17.49;83.15;102516.19;5083147;28;20135;-76
2022/07/12 06:46:56;;;;;;;4.72;4.28;;;;;;;17.50;82.48;102517.94;5067626;28;20052;-76
2022/07/12 06:49:22;;;;;;;8.60;6.00;;;;;;;17.52;82.91;102529.31;5066343;28;20036;-76
2022/07/12 06:51:47;;;;;;;5.28;4.63;;;;;;;17.55;82.80;102526.50;5087240;28;20302;-76
2022/07/12 06:54:13;;;;;;;8.70;6.90;;;;;;;17.57;82.64;102523.78;5073525;28;20047;-76
2022/07/12 06:56:38;;;;;;;4.57;4.18;;;;;;;17.59;82.39;102521.94;5064024;28;20241;-76
2022/07/12 06:59:03;;;;;;;5.25;4.70;;;;;;;17.62;82.55;102522.66;5085439;28;20238;-76
2022/07/12 07:01:29;;;;;;;4.68;4.38;;;;;;;17.64;82.54;102526.13;5080303;28;20047;-76
2022/07/12 07:03:54;;;;;;;4.35;4.05;;;;;;;17.69;82.32;102523.25;5063393;28;20134;-76
2022/07/12 07:06:20;;;;;;;4.70;4.40;;;;;;;17.71;82.77;102524.06;5087866;28;20108;-75
2022/07/12 07:08:45;;;;;;;4.78;4.38;;;;;;;17.76;82.81;102515.91;5093989;28;20093;-76
2022/07/12 07:11:11;;;;;;;7.78;4.45;;;;;;;17.80;83.15;102515.69;5085710;28;20104;-76
2022/07/12 07:13:36;;;;;;;4.05;3.30;;;;;;;17.83;82.93;102517.38;5074664;28;20044;-76
2022/07/12 07:16:02;;;;;;;5.15;4.70;;;;;;;17.87;83.47;102520.78;5083637;28;20067;-76
2022/07/12 07:18:27;;;;;;;4.68;4.18;;;;;;;17.91;83.56;102519.69;5066303;28;20027;-76
2022/07/12 07:20:53;;;;;;;5.25;4.30;;;;;;;17.97;83.49;102511.47;5092577;28;20040;-76
2022/07/12 07:23:19;;;;;;;4.43;3.45;;;;;;;18.00;82.83;102513.97;5064055;28;20039;-76
2022/07/12 07:25:45;;;;;;;3.92;3.63;;;;;;;18.06;82.52;102521.63;5085141;28;20405;-76
2022/07/12 07:28:11;;;;;;;4.57;3.13;;;;;;;18.10;81.95;102528.53;5086216;28;20051;-76
2022/07/12 07:30:52;;;;;;;4.07;3.78;;;;;;;18.13;81.90;102523.09;5062237;28;20028;-76
2022/07/12 07:33:21;;;;;;;5.30;3.47;;;;;;;18.17;82.08;102524.69;5072476;28;20104;-76
2022/07/12 07:35:47;;;;;;;3.60;3.40;;;;;;;18.20;81.75;102523.66;5090452;28;20051;-76
2022/07/12 07:38:12;;;;;;;5.68;3.17;;;;;;;18.22;81.17;102517.34;5088790;28;20290;-76
2022/07/12 07:40:38;;;;;;;4.40;3.92;;;;;;;18.25;81.28;102520.81;5085762;28;20043;-76
2022/07/12 07:43:03;;;;;;;4.85;3.40;;;;;;;18.25;81.33;102516.38;5068198;28;20059;-76
2022/07/12 07:45:28;;;;;;;3.85;3.03;;;;;;;18.27;80.92;102521.59;5087538;28;20099;-76
2022/07/12 07:47:54;;;;;;;4.60;3.95;;;;;;;18.29;81.18;102515.28;5093813;28;20107;-76
2022/07/12 07:50:19;;;;;;;4.95;3.55;;;;;;;18.30;80.77;102516.13;5084849;28;20046;-76
2022/07/12 07:52:45;;;;;;;4.40;4.10;;;;;;;18.32;81.11;102522.22;5061464;28;20038;-76
2022/07/12 07:55:11;;;;;;;3.72;3.53;;;;;;;18.32;80.92;102517.81;5058611;28;20032;-76
2022/07/12 07:57:36;;;;;;;3.97;3.60;;;;;;;18.33;81.32;102513.34;5083870;28;20059;-76
2022/07/12 08:00:03;;;;;;;4.20;3.85;;;;;;;18.34;81.11;102523.03;5074788;28;20109;-76
2022/07/12 08:02:28;;;;;;;3.83;3.25;;;;;;;18.35;81.24;102522.09;5084610;28;20048;-76
2022/07/12 08:04:54;;;;;;;7.07;4.03;;;;;;;18.37;80.56;102521.09;5064037;28;20035;-76
2022/07/12 08:07:19;;;;;;;4.32;3.92;;;;;;;18.40;80.68;102518.28;5085765;28;20044;-76
2022/07/12 08:09:45;;;;;;;6.60;4.00;;;;;;;18.45;81.26;102522.53;5090634;28;20052;-76
2022/07/12 08:12:10;;;;;;;4.93;4.03;;;;;;;18.47;81.31;102526.81;5086204;28;20040;-76
2022/07/12 08:14:35;;;;;;;3.60;3.33;;;;;;;18.48;81.49;102528.56;5082655;28;20223;-76
2022/07/12 08:17:01;;;;;;;3.70;3.40;;;;;;;18.52;81.81;102538.09;5083028;28;20392;-76
2022/07/12 08:19:26;;;;;;;4.13;3.70;;;;;;;18.54;81.20;102544.19;5092642;28;20258;-76
2022/07/12 08:21:52;;;;;;;3.72;3.10;;;;;;;18.57;80.80;102529.88;5088131;28;20024;-76
2022/07/12 08:24:17;;;;;;;6.57;3.25;;;;;;;18.60;81.12;102524.44;5088852;28;20527;-76
2022/07/12 08:26:43;;;;;;;2.80;2.60;;;;;;;18.67;81.02;102525.03;5088930;28;20205;-76
2022/07/12 08:29:08;;;;;;;2.90;2.63;;;;;;;18.72;80.65;102520.31;5072022;28;20559;-76
2022/07/12 08:31:34;;;;;;;2.80;2.60;;;;;;;18.78;80.57;102518.25;5056300;28;20047;-76
2022/07/12 08:33:59;;;;;;;3.40;3.10;;;;;;;18.86;80.06;102517.03;5071577;28;21044;-76
2022/07/12 08:36:25;;;;;;;5.28;3.10;;;;;;;18.91;79.82;102518.53;5090529;28;20050;-76
2022/07/12 08:38:50;;;;;;;3.30;3.00;;;;;;;18.97;79.78;102520.91;5071695;28;20067;-76
2022/07/12 08:41:15;;;;;;;2.80;2.60;;;;;;;19.07;79.89;102517.78;5073531;28;20589;-76
2022/07/12 08:43:42;;;;;;;3.50;2.58;;;;;;;19.15;79.97;102523.56;5091930;28;20405;-76
2022/07/12 08:46:12;;;;;;;2.75;2.50;;;;;;;19.21;78.90;102525.03;5093419;28;20332;-76
2022/07/12 08:48:38;;;;;;;6.50;2.67;;;;;;;19.25;78.99;102522.16;5090366;28;20316;-76
2022/07/12 08:51:08;;;;;;;2.92;2.72;;;;;;;19.29;78.65;102518.41;5090921;28;20104;-76
2022/07/12 08:53:34;;;;;;;5.32;3.72;;;;;;;19.33;78.38;102522.63;5089224;28;20039;-76
2022/07/12 08:56:00;;;;;;;3.83;2.90;;;;;;;19.39;78.21;102510.81;5092951;28;20066;-76
2022/07/12 08:58:25;;;;;;;6.85;3.30;;;;;;;19.45;78.43;102510.53;5090586;28;20070;-76
2022/07/12 09:00:51;;;;;;;5.35;2.83;;;;;;;19.51;78.83;102509.34;5087987;28;20275;-76
2022/07/12 09:03:18;;;;;;;5.53;3.30;;;;;;;19.57;78.91;102506.34;5073800;28;20036;-76
2022/07/12 09:05:52;;;;;;;3.53;3.17;;;;;;;19.62;78.19;102511.44;5087331;28;20331;-76
2022/07/12 09:08:23;;;;;;;2.97;2.78;;;;;;;19.66;78.21;102507.66;5091881;28;20072;-76
2022/07/12 09:10:55;;;;;;;5.07;2.63;;;;;;;19.72;78.09;102520.66;5093153;28;20043;-76
2022/07/12 09:13:21;;;;;;;7.28;2.88;;;;;;;19.78;78.45;102516.84;5085381;28;20103;-76
2022/07/12 09:15:47;;;;;;;2.88;2.63;;;;;;;19.85;78.76;102526.22;5072041;28;20059;-76
2022/07/12 09:18:14;;;;;;;3.50;3.15;;;;;;;19.91;79.21;102525.88;5088671;28;20114;-76
2022/07/12 09:20:43;;;;;;;3.40;2.60;;;;;;;19.96;78.63;102529.16;5094159;28;20032;-76
2022/07/12 09:23:11;;;;;;;3.35;3.08;;;;;;;20.01;78.73;102526.22;5088070;28;20266;-76
2022/07/12 09:25:43;;;;;;;2.90;2.70;;;;;;;20.06;77.91;102533.00;5081990;28;20055;-76
2022/07/12 09:28:09;;;;;;;5.25;2.42;;;;;;;20.11;77.94;102515.00;5087467;28;20036;-76
2022/07/12 09:30:39;;;;;;;3.28;3.00;;;;;;;20.17;76.77;102516.47;5071722;28;20197;-76
2022/07/12 09:36:15;;;;;;;3.90;2.88;;;;;;;20.25;76.91;102503.63;5094006;28;20449;-76
2022/07/12 09:38:53;;;;;;;2.60;2.40;;;;;;;20.30;77.42;102506.91;5085410;28;20037;-76
2022/07/12 09:41:22;;;;;;;2.60;2.40;;;;;;;20.35;77.05;102511.09;5088375;28;20073;-76
2022/07/12 09:43:49;;;;;;;3.85;2.83;;;;;;;20.38;76.07;102514.44;5089655;28;20052;-76
2022/07/12 09:46:14;;;;;;;3.05;2.50;;;;;;;20.43;75.82;102506.19;5070009;28;20024;-76
2022/07/12 09:48:41;;;;;;;2.90;2.70;;;;;;;20.48;76.17;102515.66;5091549;28;20038;-76
2022/07/12 09:51:09;;;;;;;3.30;2.50;;;;;;;20.55;76.33;102510.81;5092491;28;20494;-76
2022/07/12 09:53:48;;;;;;;3.03;2.70;;;;;;;20.59;75.93;102503.53;5086762;28;20331;-76
2022/07/12 09:56:15;;;;;;;2.45;2.30;;;;;;;20.64;75.94;102501.50;5080929;28;20058;-76
2022/07/12 09:58:57;;;;;;;4.20;2.93;;;;;;;20.70;75.59;102506.47;5080065;28;20066;-76
2022/07/12 10:01:24;;;;;;;2.90;2.70;;;;;;;20.76;76.09;102505.28;5068195;28;20145;-76
2022/07/12 10:03:50;;;;;;;3.47;3.05;;;;;;;20.80;75.35;102512.13;5081892;28;20214;-76
2022/07/12 10:06:25;;;;;;;4.38;3.05;;;;;;;20.86;75.49;102522.41;5079109;28;20099;-76
2022/07/12 10:08:51;;;;;;;2.88;2.60;;;;;;;20.93;75.43;102522.94;5081803;28;20117;-76
2022/07/12 10:11:16;;;;;;;3.03;2.63;;;;;;;20.96;74.33;102518.28;5079041;28;20040;-76
2022/07/12 10:13:43;;;;;;;3.67;3.38;;;;;;;21.01;74.20;102512.66;5075997;28;20097;-76
2022/07/12 10:16:10;;;;;;;4.18;2.90;;;;;;;21.05;74.46;102508.91;5083737;28;20048;-76
2022/07/12 10:18:36;;;;;;;3.38;3.08;;;;;;;21.09;74.08;102518.44;5081563;28;20093;-76
2022/07/12 10:21:17;;;;;;;3.38;3.08;;;;;;;21.17;74.00;102520.63;5070252;28;20055;-76
2022/07/12 10:23:43;;;;;;;2.58;2.35;;;;;;;21.21;73.35;102536.34;5084006;28;20025;-76
2022/07/12 10:26:14;;;;;;;3.15;2.95;;;;;;;21.27;71.87;102529.81;5090238;28;20088;-76
2022/07/12 10:29:06;;;;;;;4.47;2.78;;;;;;;21.34;72.34;102524.94;5086057;28;20095;-76
2022/07/12 10:31:38;;;;;;;2.40;2.20;;;;;;;21.40;72.62;102525.44;5074647;28;20063;-76
2022/07/12 10:34:12;;;;;;;2.88;2.67;;;;;;;21.45;71.69;102526.06;5068849;28;20024;-76
2022/07/12 10:36:56;;;;;;;2.80;2.60;;;;;;;21.48;71.67;102525.00;5088080;28;20047;-76
2022/07/12 10:39:24;;;;;;;2.42;2.22;;;;;;;21.54;72.02;102529.09;5089077;28;20032;-76
2022/07/12 10:42:07;;;;;;;2.57;2.30;;;;;;;21.56;71.26;102522.75;5086518;28;20024;-76
2022/07/12 10:44:34;;;;;;;2.72;2.53;;;;;;;21.60;71.04;102524.28;5090244;28;20038;-76
2022/07/12 10:47:01;;;;;;;3.92;3.10;;;;;;;21.62;70.10;102522.38;5083202;28;20076;-76
2022/07/12 10:49:28;;;;;;;4.30;2.97;;;;;;;21.66;70.20;102525.72;5085938;28;20255;-76
2022/07/12 10:52:14;;;;;;;5.95;2.65;;;;;;;21.74;69.29;102533.22;5086155;28;20055;-76
2022/07/12 10:54:41;;;;;;;2.70;2.50;;;;;;;21.79;70.27;102525.81;5067121;28;20028;-76
2022/07/12 10:57:07;;;;;;;2.80;2.60;;;;;;;21.84;70.43;102521.91;5087309;28;20328;-76
2022/07/12 10:59:36;;;;;;;2.83;2.63;;;;;;;21.89;70.41;102528.78;5070475;28;20043;-76
2022/07/12 11:02:01;;;;;;;;;;;;;;;21.91;70.04;102519.72;5068054;28;20045;-76
2022/07/12 11:04:27;;;;;;;5.60;3.00;;;;;;;21.95;70.75;102518.56;5081258;28;20235;-76
2022/07/12 11:06:56;;;;;;;2.67;2.47;;;;;;;21.96;70.08;102514.97;5082941;28;20742;-76
2022/07/12 11:09:22;;;;;;;3.70;3.08;;;;;;;22.00;68.07;102518.28;5079539;28;20052;-76
2022/07/12 11:11:49;;;;;;;3.30;2.67;;;;;;;22.03;66.75;102516.28;5085181;28;20040;-76
2022/07/12 11:14:21;;;;;;;2.90;2.65;;;;;;;22.05;61.75;102518.88;5071253;28;20052;-76
2022/07/12 11:16:47;;;;;;;3.25;2.55;;;;;;;22.05;64.52;102503.72;5079615;28;20056;-76
2022/07/12 11:19:16;;;;;;;2.38;2.28;;;;;;;22.10;66.56;102511.41;5066455;28;20029;-76
2022/07/12 11:21:45;;;;;;;;;;;;;;;22.10;65.41;102510.56;5067344;28;20040;-76
2022/07/12 11:24:21;;;;;;;2.10;2.00;;;;;;;22.17;65.27;102502.06;5079520;28;20048;-76
2022/07/12 11:26:48;;;;;;;2.75;2.42;;;;;;;22.22;65.01;102512.44;5086615;28;20426;-76
2022/07/12 11:29:13;;;;;;;2.60;2.40;;;;;;;22.25;63.50;102514.94;5080767;28;20028;-76
2022/07/12 11:31:39;;;;;;;2.55;2.35;;;;;;;22.29;64.15;102513.81;5081960;28;20386;-76
2022/07/12 11:34:04;;;;;;;2.20;2.10;;;;;;;22.36;64.06;102506.28;5068547;28;20035;-76
2022/07/12 11:36:30;;;;;;;2.55;2.38;;;;;;;22.40;63.00;102492.63;5091032;28;20035;-76